createdAt,value
2017-06-28T00:00:21.466Z,63.24
2017-06-28T00:00:47.084Z,63.24
2017-06-28T00:01:12.642Z,63.05
2017-06-28T00:01:38.229Z,62.95
2017-06-28T00:02:03.785Z,63.24
2017-06-28T00:02:29.386Z,63.15
2017-06-28T00:02:54.969Z,63.43
2017-06-28T00:03:20.518Z,63.05
2017-06-28T00:03:46.126Z,63.15
2017-06-28T00:04:11.722Z,63.15
2017-06-28T00:04:37.274Z,63.05
2017-06-28T00:05:02.810Z,63.15
2017-06-28T00:05:28.451Z,63.24
2017-06-28T00:06:27.359Z,63.24
2017-06-28T00:06:53.001Z,63.34
2017-06-28T00:07:18.575Z,63.05
2017-06-28T00:07:44.149Z,63.34
2017-06-28T00:08:09.746Z,63.34
2017-06-28T00:08:35.362Z,63.24
2017-06-28T00:09:00.906Z,63.34
2017-06-28T00:09:26.460Z,63.05
2017-06-28T00:09:52.024Z,63.24
2017-06-28T00:10:17.568Z,63.34
2017-06-28T00:10:43.188Z,63.15
2017-06-28T00:11:08.779Z,63.24
2017-06-28T00:11:34.345Z,63.15
2017-06-28T00:11:59.980Z,63.24
2017-06-28T00:12:25.581Z,63.24
2017-06-28T00:12:51.160Z,63.34
2017-06-28T00:13:16.730Z,62.95
2017-06-28T00:13:42.299Z,63.34
2017-06-28T00:14:07.872Z,63.24
2017-06-28T00:14:33.457Z,63.34
2017-06-28T00:14:59.021Z,63.15
2017-06-28T00:15:24.586Z,63.15
2017-06-28T00:15:50.162Z,63.34
2017-06-28T00:16:15.762Z,63.15
2017-06-28T00:16:41.321Z,63.15
2017-06-28T00:17:06.861Z,63.15
2017-06-28T00:17:32.440Z,63.15
2017-06-28T00:17:57.989Z,63.05
2017-06-28T00:18:23.534Z,63.15
2017-06-28T00:18:49.269Z,63.15
2017-06-28T00:19:14.847Z,63.24
2017-06-28T00:19:40.401Z,63.15
2017-06-28T00:20:05.967Z,63.05
2017-06-28T00:20:31.574Z,63.15
2017-06-28T00:20:57.160Z,63.24
2017-06-28T00:21:22.741Z,63.15
2017-06-28T00:21:48.326Z,63.24
2017-06-28T00:22:13.888Z,63.24
2017-06-28T00:22:39.437Z,63.15
2017-06-28T00:23:04.980Z,63.05
2017-06-28T00:23:30.568Z,63.15
2017-06-28T00:23:56.164Z,63.15
2017-06-28T00:24:21.724Z,63.05
2017-06-28T00:24:47.279Z,63.15
2017-06-28T00:25:12.861Z,63.15
2017-06-28T00:25:38.484Z,63.15
2017-06-28T00:26:04.042Z,63.15
2017-06-28T00:26:29.651Z,63.05
2017-06-28T00:26:55.206Z,63.24
2017-06-28T00:27:20.772Z,63.05
2017-06-28T00:27:46.369Z,63.24
2017-06-28T00:28:11.906Z,63.15
2017-06-28T00:28:37.467Z,63.24
2017-06-28T00:29:03.017Z,63.05
2017-06-28T00:29:28.562Z,63.15
2017-06-28T00:29:54.117Z,63.24
2017-06-28T00:30:19.677Z,63.15
2017-06-28T00:30:45.241Z,63.15
2017-06-28T00:31:10.832Z,63.15
2017-06-28T00:31:36.533Z,63.15
2017-06-28T00:32:02.188Z,63.15
2017-06-28T00:32:27.747Z,63.15
2017-06-28T00:32:53.300Z,63.15
2017-06-28T00:33:18.853Z,63.15
2017-06-28T00:33:44.392Z,63.15
2017-06-28T00:34:09.996Z,63.15
2017-06-28T00:34:35.647Z,63.05
2017-06-28T00:35:01.193Z,63.15
2017-06-28T00:35:26.769Z,63.15
2017-06-28T00:35:52.339Z,63.05
2017-06-28T00:36:17.902Z,63.05
2017-06-28T00:36:43.472Z,63.15
2017-06-28T00:37:09.048Z,63.15
2017-06-28T00:37:34.621Z,63.15
2017-06-28T00:38:00.190Z,63.05
2017-06-28T00:38:25.750Z,63.15
2017-06-28T00:38:51.329Z,63.15
2017-06-28T00:39:16.912Z,63.15
2017-06-28T00:39:42.455Z,63.15
2017-06-28T00:40:08.019Z,63.05
2017-06-28T00:40:33.574Z,63.24
2017-06-28T00:40:59.172Z,63.24
2017-06-28T00:41:24.875Z,63.15
2017-06-28T00:41:50.436Z,63.24
2017-06-28T00:42:15.996Z,63.15
2017-06-28T00:42:41.557Z,63.15
2017-06-28T00:43:07.110Z,63.24
2017-06-28T00:43:32.691Z,63.15
2017-06-28T00:43:58.274Z,63.15
2017-06-28T00:44:23.838Z,63.05
2017-06-28T00:44:49.429Z,63.24
2017-06-28T00:45:15.007Z,63.15
2017-06-28T00:45:40.575Z,63.15
2017-06-28T00:46:06.135Z,63.34
2017-06-28T00:46:31.691Z,63.24
2017-06-28T00:46:57.248Z,63.15
2017-06-28T00:47:22.814Z,63.24
2017-06-28T00:47:48.400Z,63.15
2017-06-28T00:48:13.974Z,63.24
2017-06-28T00:48:39.536Z,63.34
2017-06-28T00:49:05.112Z,63.34
2017-06-28T00:49:30.704Z,63.34
2017-06-28T00:49:56.357Z,63.34
2017-06-28T00:50:21.943Z,63.34
2017-06-28T00:50:47.493Z,63.05
2017-06-28T00:51:13.058Z,63.05
2017-06-28T00:51:38.630Z,63.24
2017-06-28T00:52:04.178Z,63.34
2017-06-28T00:52:29.737Z,63.15
2017-06-28T00:52:55.312Z,63.24
2017-06-28T00:53:20.868Z,63.24
2017-06-28T00:53:46.488Z,63.34
2017-06-28T00:54:12.064Z,63.34
2017-06-28T00:54:37.640Z,63.24
2017-06-28T00:55:03.224Z,63.34
2017-06-28T00:55:28.795Z,63.34
2017-06-28T00:55:54.338Z,63.15
2017-06-28T00:56:19.898Z,63.34
2017-06-28T00:56:45.456Z,63.15
2017-06-28T00:57:11.028Z,63.34
2017-06-28T00:57:36.676Z,63.34
2017-06-28T00:58:02.227Z,63.34
2017-06-28T00:58:27.776Z,63.34
2017-06-28T00:58:53.374Z,63.15
2017-06-28T00:59:19.126Z,63.24
2017-06-28T00:59:44.706Z,63.34
2017-06-28T01:00:10.296Z,63.34
2017-06-28T01:00:35.825Z,63.15
2017-06-28T01:01:01.396Z,63.34
2017-06-28T01:01:26.969Z,63.34
2017-06-28T01:01:52.537Z,63.24
2017-06-28T01:02:18.104Z,63.05
2017-06-28T01:02:43.673Z,63.34
2017-06-28T01:03:09.237Z,63.24
2017-06-28T01:03:34.805Z,63.34
2017-06-28T01:04:00.368Z,63.15
2017-06-28T01:04:25.929Z,63.05
2017-06-28T01:04:51.512Z,63.15
2017-06-28T01:05:17.056Z,62.95
2017-06-28T01:05:42.623Z,63.53
2017-06-28T01:06:08.192Z,63.24
2017-06-28T01:06:33.746Z,63.15
2017-06-28T01:06:59.304Z,63.15
2017-06-28T01:07:24.851Z,63.15
2017-06-28T01:07:50.446Z,63.53
2017-06-28T01:08:16.111Z,63.34
2017-06-28T01:08:41.759Z,63.34
2017-06-28T01:09:07.351Z,63.15
2017-06-28T01:09:32.903Z,63.53
2017-06-28T01:09:58.504Z,63.34
2017-06-28T01:10:24.057Z,63.34
2017-06-28T01:10:49.654Z,63.34
2017-06-28T01:11:15.213Z,63.53
2017-06-28T01:11:40.785Z,63.24
2017-06-28T01:12:06.365Z,62.66
2017-06-28T01:12:31.933Z,63.53
2017-06-28T01:12:57.491Z,62.95
2017-06-28T01:13:23.075Z,62.86
2017-06-28T01:13:48.639Z,62.86
2017-06-28T01:14:14.202Z,62.76
2017-06-28T01:14:39.792Z,62.66
2017-06-28T01:15:05.346Z,62.86
2017-06-28T01:15:30.920Z,62.95
2017-06-28T01:15:56.501Z,62.76
2017-06-28T01:16:22.112Z,63.53
2017-06-28T01:16:47.811Z,63.53
2017-06-28T01:17:13.446Z,62.76
2017-06-28T01:17:39.000Z,62.76
2017-06-28T01:18:04.570Z,62.95
2017-06-28T01:18:30.118Z,63.05
2017-06-28T01:18:55.667Z,62.66
2017-06-28T01:19:21.251Z,62.95
2017-06-28T01:19:46.817Z,63.53
2017-06-28T01:20:12.410Z,63.53
2017-06-28T01:20:38.007Z,62.95
2017-06-28T01:21:03.565Z,62.95
2017-06-28T01:21:29.120Z,62.95
2017-06-28T01:21:54.692Z,62.57
2017-06-28T01:22:20.257Z,62.95
2017-06-28T01:22:45.833Z,63.53
2017-06-28T01:23:11.462Z,62.95
2017-06-28T01:23:37.070Z,63.53
2017-06-28T01:24:02.650Z,62.95
2017-06-28T01:24:28.234Z,62.57
2017-06-28T01:24:53.792Z,62.76
2017-06-28T01:25:19.362Z,62.95
2017-06-28T01:25:44.917Z,63.05
2017-06-28T01:26:10.496Z,62.95
2017-06-28T01:26:36.066Z,63.05
2017-06-28T01:27:01.632Z,63.05
2017-06-28T01:27:27.209Z,62.95
2017-06-28T01:27:52.760Z,62.95
2017-06-28T01:28:18.460Z,62.95
2017-06-28T01:28:43.958Z,62.86
2017-06-28T01:29:09.534Z,62.95
2017-06-28T01:29:35.097Z,62.95
2017-06-28T01:30:00.671Z,62.86
2017-06-28T01:30:26.245Z,62.86
2017-06-28T01:30:51.834Z,62.95
2017-06-28T01:31:17.407Z,63.05
2017-06-28T01:31:42.960Z,62.95
2017-06-28T01:32:08.606Z,62.86
2017-06-28T01:32:34.163Z,62.95
2017-06-28T01:32:59.721Z,62.86
2017-06-28T01:33:25.292Z,62.86
2017-06-28T01:33:51.042Z,62.86
2017-06-28T01:34:16.623Z,62.95
2017-06-28T01:34:42.201Z,62.86
2017-06-28T01:35:07.803Z,62.95
2017-06-28T01:35:33.359Z,62.86
2017-06-28T01:35:58.950Z,62.37
2017-06-28T01:36:24.505Z,63.05
2017-06-28T01:36:50.098Z,62.86
2017-06-28T01:37:15.675Z,62.86
2017-06-28T01:37:41.336Z,62.86
2017-06-28T01:38:06.911Z,62.66
2017-06-28T01:38:32.471Z,62.66
2017-06-28T01:38:58.116Z,62.66
2017-06-28T01:39:23.708Z,62.66
2017-06-28T01:39:49.275Z,62.66
2017-06-28T01:40:14.849Z,62.86
2017-06-28T01:40:40.418Z,62.66
2017-06-28T01:41:06.083Z,62.66
2017-06-28T01:41:31.652Z,62.66
2017-06-28T01:41:57.249Z,62.47
2017-06-28T01:42:22.814Z,62.66
2017-06-28T01:42:48.453Z,62.66
2017-06-28T01:43:14.013Z,62.66
2017-06-28T01:44:17.997Z,62.86
2017-06-28T01:44:43.555Z,62.66
2017-06-28T01:45:09.160Z,62.66
2017-06-28T01:45:34.875Z,62.86
2017-06-28T01:46:00.447Z,62.66
2017-06-28T01:46:26.091Z,62.66
2017-06-28T01:46:51.713Z,62.47
2017-06-28T01:47:17.274Z,62.66
2017-06-28T01:47:42.862Z,62.66
2017-06-28T01:48:08.422Z,62.76
2017-06-28T01:48:33.970Z,62.66
2017-06-28T01:48:59.534Z,62.66
2017-06-28T01:49:25.097Z,62.66
2017-06-28T01:49:50.661Z,62.47
2017-06-28T01:50:16.225Z,62.47
2017-06-28T01:50:41.837Z,62.47
2017-06-28T01:51:07.434Z,62.57
2017-06-28T01:51:33.002Z,62.76
2017-06-28T01:51:58.581Z,62.37
2017-06-28T01:52:24.138Z,62.66
2017-06-28T01:52:49.695Z,62.66
2017-06-28T01:53:15.262Z,62.66
2017-06-28T01:53:40.839Z,62.66
2017-06-28T01:54:06.390Z,62.86
2017-06-28T01:54:32.030Z,62.86
2017-06-28T01:54:57.573Z,62.66
2017-06-28T01:55:23.144Z,62.66
2017-06-28T01:55:48.752Z,62.66
2017-06-28T01:56:14.418Z,62.86
2017-06-28T01:56:39.973Z,62.86
2017-06-28T01:57:05.540Z,62.66
2017-06-28T01:57:31.081Z,62.57
2017-06-28T01:57:56.638Z,62.86
2017-06-28T01:58:22.278Z,62.76
2017-06-28T01:58:47.848Z,62.86
2017-06-28T01:59:13.414Z,62.66
2017-06-28T01:59:38.987Z,62.57
2017-06-28T02:00:04.547Z,62.86
2017-06-28T02:00:30.126Z,62.37
2017-06-28T02:00:55.692Z,62.66
2017-06-28T02:01:21.252Z,62.47
2017-06-28T02:01:46.808Z,62.37
2017-06-28T02:02:12.373Z,62.47
2017-06-28T02:02:37.943Z,62.57
2017-06-28T02:03:03.506Z,62.37
2017-06-28T02:03:29.182Z,62.66
2017-06-28T02:03:54.738Z,62.47
2017-06-28T02:04:20.299Z,62.86
2017-06-28T02:04:45.863Z,62.57
2017-06-28T02:05:11.438Z,62.66
2017-06-28T02:05:37.010Z,62.47
2017-06-28T02:06:02.632Z,62.37
2017-06-28T02:06:28.293Z,62.57
2017-06-28T02:06:53.842Z,62.47
2017-06-28T02:07:19.410Z,62.37
2017-06-28T02:07:44.971Z,62.86
2017-06-28T02:08:10.534Z,62.76
2017-06-28T02:08:36.092Z,62.66
2017-06-28T02:09:01.775Z,62.37
2017-06-28T02:09:27.338Z,62.37
2017-06-28T02:09:52.898Z,62.66
2017-06-28T02:10:18.456Z,62.37
2017-06-28T02:10:44.013Z,62.66
2017-06-28T02:11:09.556Z,62.57
2017-06-28T02:11:35.115Z,62.66
2017-06-28T02:12:00.671Z,62.57
2017-06-28T02:12:26.253Z,62.86
2017-06-28T02:12:51.841Z,62.37
2017-06-28T02:13:17.398Z,62.86
2017-06-28T02:13:43.015Z,62.47
2017-06-28T02:14:08.671Z,62.37
2017-06-28T02:14:34.231Z,62.66
2017-06-28T02:14:59.816Z,62.76
2017-06-28T02:15:25.392Z,62.47
2017-06-28T02:15:50.960Z,62.47
2017-06-28T02:16:16.527Z,62.47
2017-06-28T02:16:42.097Z,62.47
2017-06-28T02:17:07.634Z,62.37
2017-06-28T02:17:33.228Z,62.37
2017-06-28T02:17:58.792Z,62.86
2017-06-28T02:18:24.398Z,62.66
2017-06-28T02:18:49.950Z,62.66
2017-06-28T02:19:15.511Z,62.66
2017-06-28T02:19:41.086Z,62.28
2017-06-28T02:20:06.638Z,62.66
2017-06-28T02:20:32.208Z,62.57
2017-06-28T02:20:57.852Z,62.66
2017-06-28T02:21:23.414Z,62.37
2017-06-28T02:21:49.033Z,62.66
2017-06-28T02:22:14.620Z,62.66
2017-06-28T02:22:40.198Z,62.86
2017-06-28T02:23:05.762Z,62.57
2017-06-28T02:23:31.336Z,62.66
2017-06-28T02:23:56.905Z,62.86
2017-06-28T02:24:22.502Z,62.86
2017-06-28T02:24:48.062Z,62.57
2017-06-28T02:25:13.633Z,62.86
2017-06-28T02:25:39.165Z,62.66
2017-06-28T02:26:04.758Z,62.66
2017-06-28T02:26:30.310Z,62.66
2017-06-28T02:26:55.887Z,62.86
2017-06-28T02:27:21.481Z,62.86
2017-06-28T02:27:47.049Z,62.57
2017-06-28T02:28:12.612Z,62.76
2017-06-28T02:28:38.263Z,62.57
2017-06-28T02:29:03.825Z,62.66
2017-06-28T02:29:29.381Z,62.86
2017-06-28T02:29:54.941Z,62.86
2017-06-28T02:30:20.496Z,62.86
2017-06-28T02:30:46.051Z,62.76
2017-06-28T02:31:11.777Z,62.66
2017-06-28T02:31:37.390Z,62.66
2017-06-28T02:32:02.946Z,62.66
2017-06-28T02:32:28.503Z,62.86
2017-06-28T02:32:54.051Z,62.66
2017-06-28T02:33:19.608Z,62.76
2017-06-28T02:33:45.164Z,62.76
2017-06-28T02:34:10.731Z,62.66
2017-06-28T02:34:36.295Z,62.57
2017-06-28T02:35:01.864Z,62.66
2017-06-28T02:35:27.507Z,62.76
2017-06-28T02:35:53.050Z,62.66
2017-06-28T02:36:18.603Z,62.76
2017-06-28T02:36:44.162Z,62.66
2017-06-28T02:37:09.719Z,62.66
2017-06-28T02:37:35.274Z,62.66
2017-06-28T02:38:00.852Z,62.66
2017-06-28T02:38:26.412Z,62.66
2017-06-28T02:38:51.994Z,62.66
2017-06-28T02:39:17.542Z,62.66
2017-06-28T02:39:43.174Z,62.66
2017-06-28T02:40:08.716Z,62.86
2017-06-28T02:40:34.276Z,62.66
2017-06-28T02:40:59.822Z,62.66
2017-06-28T02:41:25.393Z,62.86
2017-06-28T02:41:50.942Z,62.66
2017-06-28T02:42:16.521Z,62.66
2017-06-28T02:42:42.110Z,62.57
2017-06-28T02:43:07.678Z,62.76
2017-06-28T02:43:33.212Z,62.66
2017-06-28T02:43:58.779Z,62.76
2017-06-28T02:44:24.335Z,62.57
2017-06-28T02:44:49.893Z,62.76
2017-06-28T02:45:15.465Z,62.76
2017-06-28T02:45:41.030Z,62.76
2017-06-28T02:46:06.598Z,62.76
2017-06-28T02:46:32.204Z,62.76
2017-06-28T02:46:57.771Z,62.66
2017-06-28T02:47:23.361Z,62.66
2017-06-28T02:47:48.898Z,62.66
2017-06-28T02:48:14.452Z,62.76
2017-06-28T02:48:40.017Z,62.76
2017-06-28T02:49:05.600Z,62.57
2017-06-28T02:49:31.157Z,62.66
2017-06-28T02:49:56.705Z,62.86
2017-06-28T02:50:22.280Z,62.86
2017-06-28T02:50:47.843Z,62.57
2017-06-28T02:51:13.409Z,62.86
2017-06-28T02:51:38.941Z,62.47
2017-06-28T02:52:04.512Z,62.95
2017-06-28T02:52:30.253Z,62.86
2017-06-28T02:52:55.816Z,62.66
2017-06-28T02:53:21.368Z,62.86
2017-06-28T02:53:46.937Z,62.57
2017-06-28T02:54:12.497Z,62.66
2017-06-28T02:54:38.066Z,62.86
2017-06-28T02:55:03.621Z,62.66
2017-06-28T02:55:29.269Z,62.66
2017-06-28T02:55:54.797Z,62.57
2017-06-28T02:56:20.375Z,62.57
2017-06-28T02:56:46.017Z,62.66
2017-06-28T02:57:11.587Z,62.86
2017-06-28T02:57:37.183Z,62.47
2017-06-28T02:58:02.744Z,62.57
2017-06-28T02:58:28.305Z,62.86
2017-06-28T02:58:53.865Z,62.95
2017-06-28T02:59:19.446Z,62.57
2017-06-28T02:59:45.102Z,62.86
2017-06-28T03:00:10.663Z,62.95
2017-06-28T03:00:36.259Z,62.95
2017-06-28T03:01:01.837Z,62.86
2017-06-28T03:01:27.385Z,62.86
2017-06-28T03:01:52.927Z,62.95
2017-06-28T03:02:18.568Z,62.86
2017-06-28T03:02:44.173Z,62.86
2017-06-28T03:03:09.733Z,62.76
2017-06-28T03:03:35.309Z,62.86
2017-06-28T03:04:00.869Z,62.95
2017-06-28T03:04:26.410Z,62.76
2017-06-28T03:04:52.030Z,62.86
2017-06-28T03:05:17.604Z,62.76
2017-06-28T03:05:43.190Z,62.86
2017-06-28T03:06:08.759Z,62.66
2017-06-28T03:06:34.299Z,62.76
2017-06-28T03:06:59.848Z,62.76
2017-06-28T03:07:25.445Z,62.76
2017-06-28T03:07:50.996Z,62.76
2017-06-28T03:08:16.552Z,62.66
2017-06-28T03:08:42.225Z,62.76
2017-06-28T03:09:07.837Z,63.05
2017-06-28T03:09:33.408Z,63.05
2017-06-28T03:09:58.977Z,62.95
2017-06-28T03:10:24.520Z,62.76
2017-06-28T03:10:50.096Z,62.76
2017-06-28T03:11:15.656Z,62.76
2017-06-28T03:11:41.233Z,63.05
2017-06-28T03:12:06.780Z,62.95
2017-06-28T03:12:32.486Z,62.57
2017-06-28T03:12:58.066Z,62.57
2017-06-28T03:13:23.608Z,62.76
2017-06-28T03:13:49.178Z,62.66
2017-06-28T03:14:14.758Z,62.66
2017-06-28T03:14:40.339Z,62.37
2017-06-28T03:15:05.895Z,62.95
2017-06-28T03:15:31.450Z,62.95
2017-06-28T03:15:57.032Z,62.95
2017-06-28T03:16:22.588Z,62.95
2017-06-28T03:16:48.128Z,62.76
2017-06-28T03:17:13.698Z,62.66
2017-06-28T03:17:39.301Z,62.76
2017-06-28T03:18:04.825Z,62.76
2017-06-28T03:18:30.435Z,62.95
2017-06-28T03:18:55.997Z,63.05
2017-06-28T03:19:21.602Z,62.86
2017-06-28T03:19:47.155Z,62.95
2017-06-28T03:20:12.717Z,62.95
2017-06-28T03:20:38.284Z,62.66
2017-06-28T03:21:03.877Z,62.95
2017-06-28T03:21:29.522Z,62.95
2017-06-28T03:21:55.081Z,62.76
2017-06-28T03:22:20.642Z,62.95
2017-06-28T03:22:46.189Z,62.66
2017-06-28T03:23:11.758Z,62.66
2017-06-28T03:23:37.338Z,62.57
2017-06-28T03:24:02.907Z,62.57
2017-06-28T03:24:28.481Z,62.57
2017-06-28T03:24:54.036Z,62.57
2017-06-28T03:25:19.668Z,62.57
2017-06-28T03:25:45.259Z,62.57
2017-06-28T03:26:10.792Z,62.66
2017-06-28T03:26:36.368Z,62.57
2017-06-28T03:27:01.989Z,62.57
2017-06-28T03:27:27.553Z,62.66
2017-06-28T03:27:53.114Z,62.57
2017-06-28T03:28:18.698Z,62.47
2017-06-28T03:28:44.240Z,62.47
2017-06-28T03:29:09.777Z,62.57
2017-06-28T03:29:35.438Z,62.57
2017-06-28T03:30:00.985Z,62.47
2017-06-28T03:30:26.590Z,62.47
2017-06-28T03:30:52.200Z,62.57
2017-06-28T03:31:17.781Z,62.57
2017-06-28T03:31:43.339Z,62.57
2017-06-28T03:32:08.881Z,62.47
2017-06-28T03:32:34.460Z,62.57
2017-06-28T03:33:00.089Z,62.47
2017-06-28T03:33:25.761Z,62.47
2017-06-28T03:33:51.312Z,62.57
2017-06-28T03:34:16.931Z,62.76
2017-06-28T03:34:42.502Z,62.76
2017-06-28T03:35:08.055Z,62.47
2017-06-28T03:35:33.659Z,62.76
2017-06-28T03:35:59.216Z,62.47
2017-06-28T03:36:24.764Z,62.76
2017-06-28T03:36:50.324Z,62.47
2017-06-28T03:37:15.890Z,62.47
2017-06-28T03:37:41.476Z,62.47
2017-06-28T03:38:07.028Z,62.57
2017-06-28T03:38:32.596Z,62.47
2017-06-28T03:38:58.161Z,62.76
2017-06-28T03:39:23.719Z,62.47
2017-06-28T03:39:49.300Z,62.47
2017-06-28T03:40:14.946Z,62.47
2017-06-28T03:40:40.519Z,62.76
2017-06-28T03:41:06.083Z,62.76
2017-06-28T03:41:31.665Z,62.47
2017-06-28T03:41:57.249Z,62.95
2017-06-28T03:42:22.804Z,62.76
2017-06-28T03:42:48.371Z,62.47
2017-06-28T03:43:13.929Z,62.76
2017-06-28T03:43:39.499Z,62.76
2017-06-28T03:44:05.067Z,62.66
2017-06-28T03:44:30.671Z,62.47
2017-06-28T03:44:56.209Z,62.86
2017-06-28T03:45:21.776Z,62.76
2017-06-28T03:45:47.379Z,62.86
2017-06-28T03:46:12.946Z,62.66
2017-06-28T03:46:38.563Z,62.66
2017-06-28T03:47:04.175Z,62.86
2017-06-28T03:47:29.770Z,62.95
2017-06-28T03:47:55.317Z,62.76
2017-06-28T03:48:20.871Z,62.76
2017-06-28T03:48:46.436Z,62.76
2017-06-28T03:49:12.007Z,62.66
2017-06-28T03:49:37.608Z,62.76
2017-06-28T03:50:03.157Z,62.66
2017-06-28T03:50:28.708Z,62.76
2017-06-28T03:50:54.296Z,62.76
2017-06-28T03:51:19.870Z,62.86
2017-06-28T03:51:45.552Z,62.86
2017-06-28T03:52:11.220Z,62.66
2017-06-28T03:52:36.777Z,62.76
2017-06-28T03:53:02.350Z,62.86
2017-06-28T03:53:27.908Z,62.76
2017-06-28T03:53:53.481Z,62.57
2017-06-28T03:54:19.037Z,62.57
2017-06-28T03:54:44.587Z,62.76
2017-06-28T03:55:10.134Z,62.57
2017-06-28T03:55:35.731Z,62.57
2017-06-28T03:56:01.300Z,62.66
2017-06-28T03:56:26.860Z,62.76
2017-06-28T03:56:52.477Z,62.66
2017-06-28T03:57:18.044Z,62.86
2017-06-28T03:57:43.595Z,62.76
2017-06-28T03:58:09.249Z,62.66
2017-06-28T03:58:34.860Z,62.76
2017-06-28T03:59:00.407Z,62.66
2017-06-28T03:59:25.987Z,62.66
2017-06-28T03:59:51.549Z,62.66
2017-06-28T04:00:17.128Z,62.76
2017-06-28T04:00:42.690Z,62.57
2017-06-28T04:01:08.338Z,62.57
2017-06-28T04:01:33.896Z,62.57
2017-06-28T04:01:59.443Z,62.57
2017-06-28T04:02:25.017Z,62.57
2017-06-28T04:02:50.547Z,62.86
2017-06-28T04:03:16.132Z,62.57
2017-06-28T04:03:41.710Z,62.57
2017-06-28T04:04:07.294Z,62.57
2017-06-28T04:04:32.849Z,62.57
2017-06-28T04:04:58.449Z,62.66
2017-06-28T04:05:23.989Z,62.66
2017-06-28T04:05:49.607Z,62.66
2017-06-28T04:06:15.172Z,62.57
2017-06-28T04:06:40.732Z,62.66
2017-06-28T04:07:06.300Z,62.86
2017-06-28T04:07:31.957Z,62.66
2017-06-28T04:07:57.535Z,62.76
2017-06-28T04:08:23.143Z,62.76
2017-06-28T04:08:48.707Z,62.76
2017-06-28T04:09:14.289Z,62.76
2017-06-28T04:09:39.882Z,62.66
2017-06-28T04:10:05.437Z,62.76
2017-06-28T04:10:31.036Z,62.76
2017-06-28T04:10:56.597Z,62.76
2017-06-28T04:11:22.158Z,62.66
2017-06-28T04:11:47.788Z,62.76
2017-06-28T04:12:13.364Z,62.76
2017-06-28T04:12:38.910Z,62.28
2017-06-28T04:13:04.467Z,62.76
2017-06-28T04:13:30.029Z,62.66
2017-06-28T04:13:55.602Z,62.08
2017-06-28T04:14:21.146Z,62.66
2017-06-28T04:14:46.706Z,62.66
2017-06-28T04:15:12.256Z,62.76
2017-06-28T04:15:37.904Z,62.76
2017-06-28T04:16:03.491Z,62.76
2017-06-28T04:16:29.098Z,62.76
2017-06-28T04:16:54.639Z,62.57
2017-06-28T04:17:20.212Z,62.57
2017-06-28T04:17:45.786Z,62.66
2017-06-28T04:18:11.334Z,62.57
2017-06-28T04:18:36.960Z,62.66
2017-06-28T04:19:02.514Z,62.57
2017-06-28T04:19:28.159Z,62.57
2017-06-28T04:19:53.709Z,62.57
2017-06-28T04:20:19.272Z,62.66
2017-06-28T04:20:44.862Z,62.66
2017-06-28T04:21:10.469Z,62.66
2017-06-28T04:21:36.029Z,62.76
2017-06-28T04:22:01.583Z,62.76
2017-06-28T04:22:27.161Z,62.76
2017-06-28T04:22:52.730Z,62.28
2017-06-28T04:23:18.324Z,62.66
2017-06-28T04:23:43.868Z,62.66
2017-06-28T04:24:09.443Z,62.66
2017-06-28T04:24:35.054Z,62.76
2017-06-28T04:25:00.599Z,62.66
2017-06-28T04:25:26.169Z,62.76
2017-06-28T04:25:51.729Z,62.66
2017-06-28T04:26:17.298Z,62.66
2017-06-28T04:26:42.866Z,62.57
2017-06-28T04:27:08.440Z,62.57
2017-06-28T04:27:34.044Z,62.66
2017-06-28T04:27:59.602Z,62.76
2017-06-28T04:28:25.163Z,62.66
2017-06-28T04:28:50.773Z,62.66
2017-06-28T04:29:16.327Z,62.66
2017-06-28T04:29:41.874Z,62.76
2017-06-28T04:30:07.459Z,62.76
2017-06-28T04:30:33.020Z,62.66
2017-06-28T04:30:58.584Z,62.76
2017-06-28T04:31:24.144Z,62.66
2017-06-28T04:31:49.737Z,62.57
2017-06-28T04:32:15.309Z,62.66
2017-06-28T04:32:40.857Z,62.66
2017-06-28T04:33:06.426Z,62.76
2017-06-28T04:33:31.988Z,62.66
2017-06-28T04:33:57.547Z,62.76
2017-06-28T04:34:23.104Z,62.57
2017-06-28T04:34:48.659Z,62.28
2017-06-28T04:35:14.211Z,62.66
2017-06-28T04:35:39.787Z,62.76
2017-06-28T04:36:05.359Z,62.28
2017-06-28T04:36:30.947Z,62.76
2017-06-28T04:36:56.506Z,62.47
2017-06-28T04:37:22.078Z,62.76
2017-06-28T04:37:47.640Z,62.66
2017-06-28T04:38:13.229Z,62.76
2017-06-28T04:38:38.825Z,62.28
2017-06-28T04:39:04.366Z,62.66
2017-06-28T04:39:29.929Z,62.66
2017-06-28T04:39:55.501Z,62.76
2017-06-28T04:40:21.076Z,62.76
2017-06-28T04:40:46.659Z,62.08
2017-06-28T04:41:12.217Z,62.66
2017-06-28T04:41:37.819Z,62.66
2017-06-28T04:42:03.395Z,62.66
2017-06-28T04:42:29.017Z,62.66
2017-06-28T04:42:54.581Z,62.18
2017-06-28T04:43:20.138Z,62.76
2017-06-28T04:43:45.718Z,62.37
2017-06-28T04:44:11.369Z,62.76
2017-06-28T04:44:36.981Z,62.66
2017-06-28T04:45:02.556Z,62.76
2017-06-28T04:45:28.120Z,62.47
2017-06-28T04:45:53.675Z,62.76
2017-06-28T04:46:19.268Z,62.28
2017-06-28T04:46:44.977Z,62.76
2017-06-28T04:47:10.541Z,62.28
2017-06-28T04:47:36.143Z,62.66
2017-06-28T04:48:01.723Z,62.28
2017-06-28T04:48:27.313Z,62.18
2017-06-28T04:48:52.948Z,62.18
2017-06-28T04:49:18.518Z,62.08
2017-06-28T04:49:44.056Z,62.28
2017-06-28T04:50:09.649Z,62.18
2017-06-28T04:50:35.213Z,62.18
2017-06-28T04:51:00.770Z,62.18
2017-06-28T04:51:26.354Z,62.28
2017-06-28T04:51:52.037Z,62.18
2017-06-28T04:52:17.672Z,62.37
2017-06-28T04:52:43.257Z,62.28
2017-06-28T04:53:08.820Z,62.08
2017-06-28T04:53:34.374Z,62.28
2017-06-28T04:53:59.929Z,62.28
2017-06-28T04:54:25.503Z,62.28
2017-06-28T04:54:51.107Z,62.28
2017-06-28T04:55:16.818Z,62.28
2017-06-28T04:55:42.386Z,62.18
2017-06-28T04:56:07.937Z,62.37
2017-06-28T04:56:33.585Z,62.37
2017-06-28T04:56:59.258Z,62.28
2017-06-28T04:57:24.899Z,62.37
2017-06-28T04:57:50.474Z,62.18
2017-06-28T04:58:16.060Z,62.28
2017-06-28T04:58:41.616Z,62.18
2017-06-28T04:59:07.185Z,62.37
2017-06-28T04:59:32.780Z,62.37
2017-06-28T04:59:58.338Z,62.37
2017-06-28T05:00:23.890Z,62.18
2017-06-28T05:00:49.518Z,62.18
2017-06-28T05:01:15.076Z,62.18
2017-06-28T05:01:40.658Z,62.37
2017-06-28T05:02:06.229Z,62.18
2017-06-28T05:02:31.874Z,62.47
2017-06-28T05:02:57.438Z,62.57
2017-06-28T05:03:23.019Z,62.57
2017-06-28T05:03:48.614Z,62.57
2017-06-28T05:04:14.152Z,62.47
2017-06-28T05:04:39.727Z,62.28
2017-06-28T05:05:05.280Z,62.47
2017-06-28T05:05:30.854Z,62.57
2017-06-28T05:05:56.500Z,62.37
2017-06-28T05:06:22.080Z,62.37
2017-06-28T05:06:47.663Z,62.18
2017-06-28T05:07:13.217Z,62.47
2017-06-28T05:07:38.801Z,62.47
2017-06-28T05:08:04.348Z,62.37
2017-06-28T05:08:29.929Z,62.28
2017-06-28T05:08:55.506Z,62.18
2017-06-28T05:09:21.068Z,62.18
2017-06-28T05:09:46.621Z,62.37
2017-06-28T05:10:12.214Z,62.37
2017-06-28T05:10:37.784Z,62.37
2017-06-28T05:11:03.352Z,62.37
2017-06-28T05:11:28.914Z,62.37
2017-06-28T05:11:54.469Z,62.37
2017-06-28T05:12:20.017Z,62.37
2017-06-28T05:12:45.657Z,62.18
2017-06-28T05:13:11.239Z,62.47
2017-06-28T05:13:36.804Z,62.47
2017-06-28T05:14:02.449Z,62.57
2017-06-28T05:14:28.018Z,62.18
2017-06-28T05:16:25.512Z,62.37
2017-06-28T05:16:51.071Z,62.57
2017-06-28T05:17:16.686Z,62.57
2017-06-28T05:17:42.343Z,62.57
2017-06-28T05:18:07.972Z,62.57
2017-06-28T05:18:33.529Z,62.47
2017-06-28T05:18:59.152Z,62.57
2017-06-28T05:19:24.752Z,62.37
2017-06-28T05:19:50.312Z,62.57
2017-06-28T05:20:15.882Z,62.47
2017-06-28T05:20:41.458Z,62.57
2017-06-28T05:21:07.028Z,62.47
2017-06-28T05:21:32.627Z,62.47
2017-06-28T05:21:58.273Z,62.57
2017-06-28T05:22:23.819Z,62.57
2017-06-28T05:22:49.384Z,62.57
2017-06-28T05:23:14.944Z,62.37
2017-06-28T05:23:40.550Z,62.37
2017-06-28T05:24:06.105Z,62.47
2017-06-28T05:24:31.688Z,62.57
2017-06-28T05:24:57.268Z,62.57
2017-06-28T05:25:22.795Z,62.37
2017-06-28T05:25:48.360Z,62.28
2017-06-28T05:26:13.964Z,62.28
2017-06-28T05:26:39.509Z,62.37
2017-06-28T05:27:05.083Z,62.37
2017-06-28T05:27:30.669Z,62.57
2017-06-28T05:27:56.229Z,62.08
2017-06-28T05:28:21.799Z,62.57
2017-06-28T05:28:47.470Z,62.47
2017-06-28T05:29:13.025Z,62.57
2017-06-28T05:29:38.591Z,62.18
2017-06-28T05:30:04.227Z,62.57
2017-06-28T05:30:29.777Z,62.57
2017-06-28T05:30:55.354Z,62.57
2017-06-28T05:31:20.909Z,62.47
2017-06-28T05:31:46.467Z,62.57
2017-06-28T05:32:12.076Z,62.57